Terminal Aerodrome Forecast
Issued by NWS Twin Cities, MN

Home | Current Version | Previous Version | Graphics & Text | Print | Product List | Glossary On
Versions: 1 2 3 4 5 6 7 8 9 10 11 12 13 14 15 16 17 18
000
FTUS43 KMPX 300700 AAA
TAFSTC
TAF AMD
KSTC 300733Z 3008/0106 09006KT P6SM OVC008
     FM301400 11011KT P6SM BKN012
     FM301600 12013G21KT P6SM SCT020 BKN150
     FM302300 12011KT 6SM -SHRA BR SCT025 BKN050
      TEMPO 0102/0106 5SM -RA BR SCT020 BKN030=

USA.gov is the U.S. government's official web portal to all federal, state and local government web resources and services.